createdAt,value
2023-01-17T00:02:56.038Z,28.00
2023-01-17T00:06:16.615Z,27.50
2023-01-17T00:09:37.355Z,26.40
2023-01-17T00:12:47.895Z,28.00
2023-01-17T00:15:51.539Z,27.00
2023-01-17T00:19:08.663Z,21.50
2023-01-17T00:22:30.640Z,26.20
2023-01-17T00:25:55.854Z,28.00
2023-01-17T00:28:59.337Z,28.00
2023-01-17T00:32:01.381Z,22.00
2023-01-17T00:35:03.838Z,23.00
2023-01-17T00:38:07.348Z,19.60
2023-01-17T00:41:11.405Z,17.60
2023-01-17T00:44:33.425Z,19.00
2023-01-17T00:47:55.660Z,15.50
2023-01-17T00:51:17.317Z,16.25
2023-01-17T00:54:38.426Z,17.00
2023-01-17T00:57:59.211Z,14.00
2023-01-17T01:01:25.122Z,12.00
2023-01-17T01:04:45.949Z,15.80
2023-01-17T01:08:06.852Z,15.50
2023-01-17T01:11:30.016Z,15.00
2023-01-17T01:14:50.915Z,12.25
2023-01-17T01:18:13.662Z,11.00
2023-01-17T01:21:34.111Z,10.60
2023-01-17T01:24:54.996Z,10.00
2023-01-17T01:28:22.340Z,10.00
2023-01-17T01:31:42.971Z,8.00
2023-01-17T01:34:47.681Z,9.00
2023-01-17T01:37:51.347Z,7.00
2023-01-17T01:40:57.067Z,7.25
2023-01-17T01:44:00.299Z,7.50
2023-01-17T01:47:04.131Z,8.00
2023-01-17T01:50:13.698Z,7.50
2023-01-17T01:53:19.307Z,9.00
2023-01-17T01:56:24.328Z,6.20
2023-01-17T01:59:31.293Z,8.00
2023-01-17T02:02:35.403Z,8.60
2023-01-17T02:05:42.653Z,7.60
2023-01-17T02:08:45.995Z,5.40
2023-01-17T02:11:50.885Z,7.50
2023-01-17T02:14:54.081Z,6.40
2023-01-17T02:18:10.124Z,6.20
2023-01-17T02:21:23.511Z,6.00
2023-01-17T02:24:53.842Z,8.00
2023-01-17T02:28:16.582Z,5.50
2023-01-17T02:31:28.220Z,8.00
2023-01-17T02:34:41.592Z,6.00
2023-01-17T02:37:55.733Z,7.00
2023-01-17T02:41:05.357Z,8.00
2023-01-17T02:44:10.899Z,4.40
2023-01-17T02:47:24.582Z,7.50
2023-01-17T02:50:36.665Z,5.00
2023-01-17T02:53:54.430Z,7.00
2023-01-17T02:57:12.014Z,6.40
2023-01-17T03:00:23.797Z,6.40
2023-01-17T03:03:34.914Z,7.75
2023-01-17T03:06:42.707Z,9.00
2023-01-17T03:09:50.007Z,8.00
2023-01-17T03:12:58.857Z,6.00
2023-01-17T03:16:03.029Z,7.00
2023-01-17T03:19:09.871Z,4.80
2023-01-17T03:22:13.252Z,7.00
2023-01-17T03:25:17.285Z,5.60
2023-01-17T03:28:20.620Z,5.00
2023-01-17T03:31:24.100Z,6.00
2023-01-17T03:34:28.815Z,5.50
2023-01-17T03:37:32.013Z,5.00
2023-01-17T03:40:35.336Z,6.00
2023-01-17T03:43:38.748Z,6.00
2023-01-17T03:46:42.061Z,7.00
2023-01-17T03:49:46.676Z,6.60
2023-01-17T03:52:50.064Z,6.20
2023-01-17T03:55:53.288Z,8.25
2023-01-17T03:58:58.659Z,6.00
2023-01-17T04:02:02.465Z,5.40
2023-01-17T04:05:07.775Z,6.60
2023-01-17T04:08:11.007Z,7.00
2023-01-17T04:11:14.301Z,6.00
2023-01-17T04:14:17.713Z,4.00
2023-01-17T04:17:22.102Z,5.60
2023-01-17T04:20:33.234Z,6.00
2023-01-17T04:23:36.891Z,7.00
2023-01-17T04:26:40.086Z,7.00
2023-01-17T04:29:46.600Z,6.00
2023-01-17T04:32:50.185Z,5.40
2023-01-17T04:35:55.418Z,6.00
2023-01-17T04:38:58.664Z,7.60
2023-01-17T04:42:03.282Z,5.00
2023-01-17T04:45:07.684Z,6.00
2023-01-17T04:48:12.800Z,6.00
2023-01-17T04:51:17.461Z,4.60
2023-01-17T04:54:20.812Z,7.60
2023-01-17T04:57:25.259Z,4.00
2023-01-17T05:00:28.628Z,6.60
2023-01-17T05:03:32.575Z,5.00
2023-01-17T05:06:37.202Z,5.00
2023-01-17T05:09:40.634Z,5.00
2023-01-17T05:12:43.984Z,6.00
2023-01-17T05:15:48.202Z,6.00
2023-01-17T05:18:53.565Z,4.60
2023-01-17T05:22:04.023Z,4.00
2023-01-17T05:25:08.661Z,3.25
2023-01-17T05:28:12.994Z,5.00
2023-01-17T05:31:16.785Z,7.00
2023-01-17T05:34:20.216Z,4.00
2023-01-17T05:37:25.079Z,4.00
2023-01-17T05:40:30.887Z,7.00
2023-01-17T05:43:34.366Z,6.25
2023-01-17T05:46:37.682Z,5.20
2023-01-17T05:49:40.996Z,8.00
2023-01-17T05:52:51.193Z,7.00
2023-01-17T05:55:55.106Z,6.00
2023-01-17T05:58:58.359Z,7.00
2023-01-17T06:02:01.612Z,7.75
2023-01-17T06:05:05.584Z,6.00
2023-01-17T06:08:11.404Z,5.00
2023-01-17T06:11:14.701Z,7.80
2023-01-17T06:14:18.558Z,5.60
2023-01-17T06:17:22.035Z,4.00
2023-01-17T06:20:25.328Z,7.00
2023-01-17T06:23:29.990Z,8.00
2023-01-17T06:26:33.572Z,7.75
2023-01-17T06:29:36.844Z,7.50
2023-01-17T06:32:40.122Z,7.00
2023-01-17T06:35:48.850Z,8.00
2023-01-17T06:38:53.682Z,8.20
2023-01-17T06:41:57.105Z,7.40
2023-01-17T06:45:00.711Z,8.00
2023-01-17T06:48:05.451Z,9.00
2023-01-17T06:51:08.699Z,7.00
2023-01-17T06:54:13.424Z,7.00
2023-01-17T06:57:16.817Z,8.00
2023-01-17T07:00:20.812Z,6.00
2023-01-17T07:03:25.740Z,6.00
2023-01-17T07:06:29.817Z,9.40
2023-01-17T07:09:34.488Z,6.00
2023-01-17T07:12:37.749Z,7.20
2023-01-17T07:15:41.147Z,9.80
2023-01-17T07:18:44.428Z,8.60
2023-01-17T07:21:48.487Z,7.00
2023-01-17T07:24:58.500Z,9.40
2023-01-17T07:28:02.583Z,10.80
2023-01-17T07:31:08.141Z,9.00
2023-01-17T07:34:11.646Z,17.00
2023-01-17T07:37:15.526Z,22.20
2023-01-17T07:40:22.392Z,26.75
2023-01-17T07:43:25.624Z,18.60
2023-01-17T07:46:30.164Z,14.00
2023-01-17T07:49:33.458Z,11.50
2023-01-17T07:52:36.797Z,12.50
2023-01-17T07:55:41.446Z,14.60
2023-01-17T07:58:44.714Z,11.40
2023-01-17T08:01:48.066Z,14.00
2023-01-17T08:04:51.419Z,15.00
2023-01-17T08:07:55.227Z,15.80
2023-01-17T08:11:00.336Z,12.00
2023-01-17T08:14:03.549Z,13.00
2023-01-17T08:17:07.303Z,13.00
2023-01-17T08:20:12.530Z,12.25
2023-01-17T08:23:16.128Z,14.00
2023-01-17T08:26:22.796Z,15.00
2023-01-17T08:29:26.171Z,11.80
2023-01-17T08:32:29.446Z,10.00
2023-01-17T08:35:34.907Z,12.00
2023-01-17T08:38:39.541Z,13.20
2023-01-17T08:41:44.642Z,18.40
2023-01-17T08:44:47.845Z,13.80
2023-01-17T08:47:52.250Z,17.40
2023-01-17T08:50:55.572Z,14.25
2023-01-17T08:53:58.911Z,19.80
2023-01-17T08:57:05.148Z,14.60
2023-01-17T09:00:10.056Z,21.00
2023-01-17T09:03:14.405Z,22.00
2023-01-17T09:06:18.343Z,21.20
2023-01-17T09:09:21.593Z,20.00
2023-01-17T09:12:26.521Z,20.50
2023-01-17T09:15:29.713Z,22.00
2023-01-17T09:18:34.872Z,21.00
2023-01-17T09:21:38.283Z,21.00
2023-01-17T09:24:42.337Z,20.00
2023-01-17T09:27:48.196Z,17.20
2023-01-17T09:30:51.933Z,19.40
2023-01-17T09:33:56.602Z,13.00
2023-01-17T09:36:59.896Z,14.00
2023-01-17T09:40:03.660Z,13.60
2023-01-17T09:43:23.444Z,14.00
2023-01-17T09:46:30.671Z,14.00
2023-01-17T09:49:40.238Z,15.00
2023-01-17T09:52:43.664Z,14.20
2023-01-17T09:55:56.311Z,14.60
2023-01-17T09:59:19.103Z,13.20
2023-01-17T10:02:50.851Z,13.75
2023-01-17T10:06:08.238Z,16.00
2023-01-17T10:09:42.386Z,20.00
2023-01-17T10:12:54.538Z,14.00
2023-01-17T10:16:17.892Z,13.60
2023-01-17T10:19:46.924Z,12.00
2023-01-17T10:23:08.440Z,12.00
2023-01-17T10:26:16.950Z,10.00
2023-01-17T10:29:22.204Z,8.20
2023-01-17T10:32:32.561Z,8.00
2023-01-17T10:35:40.680Z,8.00
2023-01-17T10:38:49.168Z,9.00
2023-01-17T10:41:56.633Z,6.50
2023-01-17T10:45:06.873Z,8.00
2023-01-17T10:48:17.832Z,7.60
2023-01-17T10:51:43.091Z,8.00
2023-01-17T10:54:59.177Z,6.00
2023-01-17T10:58:03.094Z,5.20
2023-01-17T11:01:18.187Z,6.00
2023-01-17T11:04:27.750Z,6.00
2023-01-17T11:07:31.122Z,7.00
2023-01-17T11:10:40.963Z,7.00
2023-01-17T11:13:47.783Z,10.00
2023-01-17T11:17:02.710Z,8.00
2023-01-17T11:20:21.200Z,9.00
2023-01-17T11:23:32.662Z,11.00
2023-01-17T11:26:37.970Z,9.00
2023-01-17T11:29:41.881Z,6.00
2023-01-17T11:32:53.214Z,6.00
2023-01-17T11:35:57.967Z,8.00
2023-01-17T11:39:04.124Z,6.00
2023-01-17T11:42:28.088Z,8.00
2023-01-17T11:45:33.869Z,6.00
2023-01-17T11:48:39.391Z,5.00
2023-01-17T11:51:44.607Z,6.00
2023-01-17T11:54:49.710Z,6.20
2023-01-17T11:57:54.684Z,6.00
2023-01-17T12:01:12.228Z,7.00
2023-01-17T12:04:26.164Z,5.60
2023-01-17T12:07:39.136Z,7.50
2023-01-17T12:10:54.020Z,8.00
2023-01-17T12:14:09.427Z,8.00
2023-01-17T12:17:25.628Z,8.00
2023-01-17T12:20:37.926Z,7.00
2023-01-17T12:23:59.714Z,7.40
2023-01-17T12:27:13.808Z,6.60
2023-01-17T12:30:32.335Z,8.00
2023-01-17T12:33:46.026Z,6.20
2023-01-17T12:36:54.018Z,7.00
2023-01-17T12:40:07.696Z,7.60
2023-01-17T12:43:20.868Z,7.60
2023-01-17T12:46:31.606Z,7.40
2023-01-17T12:49:44.591Z,7.80
2023-01-17T12:52:54.282Z,8.00
2023-01-17T12:56:04.995Z,9.75
2023-01-17T12:59:17.688Z,8.20
2023-01-17T13:02:31.463Z,7.80
2023-01-17T13:05:38.465Z,11.25
2023-01-17T13:08:47.639Z,10.00
2023-01-17T13:11:58.361Z,9.40
2023-01-17T13:15:07.279Z,7.00
2023-01-17T13:18:16.217Z,9.00
2023-01-17T13:21:30.611Z,9.50
2023-01-17T13:24:45.469Z,9.00
2023-01-17T13:28:04.033Z,9.00
2023-01-17T13:31:27.811Z,8.00
2023-01-17T13:34:45.153Z,7.00
2023-01-17T13:38:08.367Z,7.40
2023-01-17T13:41:29.028Z,7.00
2023-01-17T13:44:33.842Z,8.00
2023-01-17T13:47:42.088Z,8.40
2023-01-17T13:50:51.334Z,7.00
2023-01-17T13:53:55.073Z,4.00
2023-01-17T13:57:32.957Z,6.00
2023-01-17T14:00:52.115Z,5.75
2023-01-17T14:04:08.027Z,4.00
2023-01-17T14:07:25.365Z,3.00
2023-01-17T14:10:34.648Z,6.00
2023-01-17T14:13:39.928Z,6.00
2023-01-17T14:16:46.303Z,4.60
2023-01-17T14:19:52.446Z,6.00
2023-01-17T14:22:58.566Z,5.00
2023-01-17T14:26:19.749Z,8.25
2023-01-17T14:29:52.329Z,4.00
2023-01-17T14:33:17.562Z,4.00
2023-01-17T14:36:31.605Z,5.00
2023-01-17T14:39:45.299Z,5.80
2023-01-17T14:43:00.302Z,5.00
2023-01-17T14:46:06.740Z,2.00
2023-01-17T14:49:26.028Z,5.00
2023-01-17T14:52:29.610Z,4.75
2023-01-17T14:55:33.111Z,5.40
2023-01-17T14:58:37.667Z,3.00
2023-01-17T15:01:41.997Z,5.00
2023-01-17T15:04:55.784Z,6.00
2023-01-17T15:07:59.767Z,5.00
2023-01-17T15:11:06.572Z,6.75
2023-01-17T15:14:14.603Z,7.60
2023-01-17T15:17:20.286Z,7.00
2023-01-17T15:20:25.309Z,6.40
2023-01-17T15:23:34.524Z,9.00
2023-01-17T15:26:42.618Z,9.00
2023-01-17T15:29:47.414Z,9.40
2023-01-17T15:32:51.553Z,8.00
2023-01-17T15:36:03.020Z,9.00
2023-01-17T15:39:16.135Z,12.00
2023-01-17T15:42:24.918Z,10.20
2023-01-17T15:45:30.840Z,12.67
2023-01-17T15:48:40.602Z,13.00
2023-01-17T15:51:51.398Z,11.50
2023-01-17T15:54:58.899Z,10.60
2023-01-17T15:58:02.910Z,13.00
2023-01-17T16:01:17.474Z,10.20
2023-01-17T16:04:33.542Z,12.00
2023-01-17T16:07:38.251Z,15.80
2023-01-17T16:10:41.465Z,11.00
2023-01-17T16:13:47.967Z,12.00
2023-01-17T16:16:53.036Z,10.00
2023-01-17T16:19:56.309Z,12.00
2023-01-17T16:23:01.129Z,14.00
2023-01-17T16:26:05.426Z,9.00
2023-01-17T16:29:10.306Z,12.00
2023-01-17T16:32:15.554Z,13.25
2023-01-17T16:35:21.198Z,12.00
2023-01-17T16:38:26.570Z,12.00
2023-01-17T16:41:29.837Z,13.00
2023-01-17T16:44:33.772Z,15.00
2023-01-17T16:47:37.048Z,12.40
2023-01-17T16:50:42.814Z,17.40
2023-01-17T16:53:47.501Z,23.00
2023-01-17T16:56:50.858Z,22.00
2023-01-17T16:59:54.336Z,20.60
2023-01-17T17:02:59.203Z,21.00
2023-01-17T17:06:02.589Z,21.00
2023-01-17T17:09:07.980Z,24.75
2023-01-17T17:12:11.302Z,23.60
2023-01-17T17:15:15.084Z,19.00
2023-01-17T17:18:19.430Z,21.20
2023-01-17T17:21:23.263Z,21.00
2023-01-17T17:24:28.144Z,19.20
2023-01-17T17:27:31.441Z,22.00
2023-01-17T17:30:36.170Z,24.80
2023-01-17T17:33:39.738Z,29.40
2023-01-17T17:36:43.320Z,23.00
2023-01-17T17:39:48.160Z,25.50
2023-01-17T17:42:51.419Z,28.40
2023-01-17T17:45:55.380Z,28.20
2023-01-17T17:48:59.667Z,31.50
2023-01-17T17:52:07.402Z,30.60
2023-01-17T17:55:13.224Z,30.50
2023-01-17T17:58:16.579Z,30.00
2023-01-17T18:01:22.881Z,31.50
2023-01-17T18:04:27.006Z,29.50
2023-01-17T18:07:31.947Z,30.80
2023-01-17T18:10:36.561Z,31.60
2023-01-17T18:13:39.825Z,34.40
2023-01-17T18:16:45.113Z,26.80
2023-01-17T18:19:48.477Z,29.60
2023-01-17T18:22:52.124Z,22.25
2023-01-17T18:25:56.780Z,26.75
2023-01-17T18:29:01.462Z,25.00
2023-01-17T18:32:05.036Z,25.00
2023-01-17T18:35:08.880Z,25.20
2023-01-17T18:38:12.188Z,23.00
2023-01-17T18:41:18.796Z,26.20
2023-01-17T18:44:24.334Z,29.00
2023-01-17T18:47:30.410Z,26.40
2023-01-17T18:50:33.697Z,23.50
2023-01-17T18:53:38.675Z,27.00
2023-01-17T18:56:43.589Z,26.25
2023-01-17T18:59:47.180Z,27.80
2023-01-17T19:02:50.755Z,25.40
2023-01-17T19:05:54.009Z,27.50
2023-01-17T19:08:57.833Z,31.00
2023-01-17T19:12:02.667Z,33.00
2023-01-17T19:15:06.729Z,33.20
2023-01-17T19:18:10.140Z,28.80
2023-01-17T19:21:15.285Z,29.00
2023-01-17T19:24:18.662Z,32.00
2023-01-17T19:27:23.796Z,35.20
2023-01-17T19:30:28.920Z,34.00
2023-01-17T19:33:32.266Z,39.75
2023-01-17T19:36:38.116Z,36.75
2023-01-17T19:39:41.472Z,42.00
2023-01-17T19:42:46.769Z,42.00
2023-01-17T19:45:58.664Z,44.25
2023-01-17T19:49:02.547Z,41.20
2023-01-17T19:52:06.151Z,38.20
2023-01-17T19:55:11.777Z,41.00
2023-01-17T19:58:16.726Z,45.40
2023-01-17T20:01:24.123Z,45.20
2023-01-17T20:04:27.598Z,41.75
2023-01-17T20:07:31.482Z,45.80
2023-01-17T20:10:34.893Z,46.40
2023-01-17T20:13:40.217Z,42.00
2023-01-17T20:16:45.055Z,46.00
2023-01-17T20:19:48.438Z,49.25
2023-01-17T20:22:51.781Z,41.80
2023-01-17T20:25:59.061Z,47.40
2023-01-17T20:29:06.955Z,44.40
2023-01-17T20:32:10.279Z,47.25
2023-01-17T20:35:14.053Z,49.00
2023-01-17T20:38:17.799Z,47.75
2023-01-17T20:41:23.344Z,47.60
2023-01-17T20:44:28.710Z,56.00
2023-01-17T20:47:31.967Z,53.00
2023-01-17T20:50:37.040Z,53.25
2023-01-17T20:53:42.249Z,52.40
2023-01-17T20:56:47.695Z,50.50
2023-01-17T20:59:52.477Z,52.60
2023-01-17T21:02:55.741Z,53.40
2023-01-17T21:06:03.691Z,51.00
2023-01-17T21:09:08.739Z,45.80
2023-01-17T21:12:11.967Z,50.40
2023-01-17T21:15:18.255Z,50.00
2023-01-17T21:18:23.282Z,51.60
2023-01-17T21:21:29.075Z,52.40
2023-01-17T21:24:32.476Z,53.00
2023-01-17T21:27:35.872Z,51.00
2023-01-17T21:30:40.540Z,50.50
2023-01-17T21:33:43.838Z,51.00
2023-01-17T21:36:47.414Z,47.00
2023-01-17T21:39:54.807Z,44.60
2023-01-17T21:42:58.076Z,45.75
2023-01-17T21:46:05.564Z,42.00
2023-01-17T21:49:12.059Z,39.60
2023-01-17T21:52:21.335Z,49.00
2023-01-17T21:55:41.925Z,42.40
2023-01-17T21:58:45.827Z,40.00
2023-01-17T22:01:50.639Z,36.50
2023-01-17T22:04:56.324Z,31.50
2023-01-17T22:08:15.399Z,36.25
2023-01-17T22:11:20.807Z,32.40
2023-01-17T22:14:24.142Z,38.40
2023-01-17T22:17:30.335Z,33.60
2023-01-17T22:20:33.625Z,32.00
2023-01-17T22:23:37.511Z,32.33
2023-01-17T22:26:41.961Z,33.75
2023-01-17T22:29:45.775Z,33.25
2023-01-17T22:32:50.467Z,30.00
2023-01-17T22:35:59.487Z,29.75
2023-01-17T22:39:03.065Z,28.00
2023-01-17T22:42:06.670Z,25.00
2023-01-17T22:45:11.429Z,23.00
2023-01-17T22:48:16.188Z,27.33
2023-01-17T22:51:21.409Z,25.75
2023-01-17T22:54:24.907Z,23.75
2023-01-17T22:57:28.153Z,26.00
2023-01-17T23:00:32.104Z,24.50
2023-01-17T23:03:36.759Z,24.40
2023-01-17T23:06:41.037Z,28.50
2023-01-17T23:09:44.297Z,27.80
2023-01-17T23:12:47.593Z,27.80
2023-01-17T23:16:08.222Z,27.00
2023-01-17T23:19:24.966Z,26.40
2023-01-17T23:22:30.185Z,24.50
2023-01-17T23:25:33.553Z,28.00
2023-01-17T23:28:35.815Z,27.25
2023-01-17T23:31:39.197Z,29.00
2023-01-17T23:34:44.030Z,27.00
2023-01-17T23:38:05.075Z,24.40
2023-01-17T23:41:27.173Z,22.00
2023-01-17T23:44:32.130Z,18.00
2023-01-17T23:47:35.404Z,18.00
2023-01-17T23:50:41.780Z,18.40
2023-01-17T23:53:45.021Z,18.25
2023-01-17T23:56:48.312Z,18.00
2023-01-17T23:59:51.619Z,17.00
